Terminal Aerodrome Forecast
Issued by NWS Chicago, IL

Home | Current Version | Previous Version | Graphics & Text | Print | Product List | Glossary On
Versions: 1 2 3 4 5 6 7 8 9 10 11 12 13 14 15 16 17 18 19 20 21 22 23 24 25 26 27 28 29 30 31 32
016
FTUS43 KLOT 271357 AAA
TAFRFD
TAF AMD
KRFD 271357Z 2714/2812 12006KT P6SM VCSH OVC008
     FM271600 16008KT P6SM BKN015
     FM271700 20011KT P6SM BKN035 BKN050
     FM280100 VRB04KT P6SM SCT030 BKN250
     FM280700 02005KT P6SM BKN025=

USA.gov is the U.S. government's official web portal to all federal, state and local government web resources and services.